地図

経路データ

SID SEASON NUMBER BASIN SUBBASIN NAME ISO_TIME NATURE LAT LON WMO_WIND WMO_PRES WMO_AGENCY TRACK_TYPE DIST2LAND LANDFALL IFLAG USA_AGENCY USA_ATCF_ID USA_LAT USA_LON USA_RECORD USA_STATUS USA_WIND USA_PRES USA_SSHS USA_R34_NE USA_R34_SE USA_R34_SW USA_R34_NW USA_R50_NE USA_R50_SE USA_R50_SW USA_R50_NW USA_R64_NE USA_R64_SE USA_R64_SW USA_R64_NW USA_POCI USA_ROCI USA_RMW USA_EYE TOKYO_LAT TOKYO_LON TOKYO_GRADE TOKYO_WIND TOKYO_PRES TOKYO_R50_DIR TOKYO_R50_LONG TOKYO_R50_SHORT TOKYO_R30_DIR TOKYO_R30_LONG TOKYO_R30_SHORT TOKYO_LAND CMA_LAT CMA_LON CMA_CAT CMA_WIND CMA_PRES HKO_LAT HKO_LON HKO_CAT HKO_WIND HKO_PRES NEWDELHI_LAT NEWDELHI_LON NEWDELHI_GRADE NEWDELHI_WIND NEWDELHI_PRES NEWDELHI_CI NEWDELHI_DP NEWDELHI_POCI REUNION_LAT REUNION_LON REUNION_TYPE REUNION_WIND REUNION_PRES REUNION_TNUM REUNION_CI REUNION_RMW REUNION_R34_NE REUNION_R34_SE REUNION_R34_SW REUNION_R34_NW REUNION_R50_NE REUNION_R50_SE REUNION_R50_SW REUNION_R50_NW REUNION_R64_NE REUNION_R64_SE REUNION_R64_SW REUNION_R64_NW BOM_LAT BOM_LON BOM_TYPE BOM_WIND BOM_PRES BOM_TNUM BOM_CI BOM_RMW BOM_R34_NE BOM_R34_SE BOM_R34_SW BOM_R34_NW BOM_R50_NE BOM_R50_SE BOM_R50_SW BOM_R50_NW BOM_R64_NE BOM_R64_SE BOM_R64_SW BOM_R64_NW BOM_ROCI BOM_POCI BOM_EYE BOM_POS_METHOD BOM_PRES_METHOD NADI_LAT NADI_LON NADI_CAT NADI_WIND NADI_PRES WELLINGTON_LAT WELLINGTON_LON WELLINGTON_WIND WELLINGTON_PRES DS824_LAT DS824_LON DS824_STAGE DS824_WIND DS824_PRES TD9636_LAT TD9636_LON TD9636_STAGE TD9636_WIND TD9636_PRES TD9635_LAT TD9635_LON TD9635_WIND TD9635_PRES TD9635_ROCI NEUMANN_LAT NEUMANN_LON NEUMANN_CLASS NEUMANN_WIND NEUMANN_PRES MLC_LAT MLC_LON MLC_CLASS MLC_WIND MLC_PRES USA_GUST BOM_GUST BOM_GUST_PER REUNION_GUST REUNION_GUST_PER USA_SEAHGT USA_SEARAD_NE USA_SEARAD_SE USA_SEARAD_SW USA_SEARAD_NW STORM_SPEED STORM_DIR
1928246N17287 1928 49 NA CS NOT_NAMED 1928-09-01 18:00:00 TS 17.2000 -72.8000 25 hurdat_atl main 100 94 O_____________ hurdat_atl AL031928 17.2000 -72.8000 TD 25 -1 10 276
1928246N17287 1928 49 NA CS NOT_NAMED 1928-09-01 21:00:00 TS 17.2528 -73.3049 main 94 78 P_____________ AL031928 17.2528 -73.3049 TD 27 -1 10 276
1928246N17287 1928 49 NA CS NOT_NAMED 1928-09-02 00:00:00 TS 17.3000 -73.8000 30 hurdat_atl main 78 78 O_____________ hurdat_atl AL031928 17.3000 -73.8000 TD 30 -1 9 275
1928246N17287 1928 49 NA CS NOT_NAMED 1928-09-02 03:00:00 TS 17.3423 -74.2851 main 89 85 P_____________ AL031928 17.3423 -74.2851 TD 30 -1 10 276
1928246N17287 1928 49 NA CS NOT_NAMED 1928-09-02 06:00:00 TS 17.4000 -74.8000 30 hurdat_atl main 109 105 O_____________ hurdat_atl AL031928 17.4000 -74.8000 TD 30 -1 10 279
1928246N17287 1928 49 NA CS NOT_NAMED 1928-09-02 09:00:00 TS 17.4997 -75.3624 main 95 39 P_____________ AL031928 17.4997 -75.3624 TD 32 -1 12 280
1928246N17287 1928 49 NA CS NOT_NAMED 1928-09-02 12:00:00 TS 17.6000 -76.0000 35 hurdat_atl main 39 22 O_____________ hurdat_atl AL031928 17.6000 -76.0000 TS 35 0 13 277
1928246N17287 1928 49 NA CS NOT_NAMED 1928-09-02 15:00:00 TS 17.6573 -76.7126 main 22 0 P_____________ AL031928 17.6573 -76.7126 TS 35 0 14 274
1928246N17287 1928 49 NA CS NOT_NAMED 1928-09-02 18:00:00 TS 17.7000 -77.5000 35 hurdat_atl main 22 22 O_____________ hurdat_atl AL031928 17.7000 -77.5000 TS 35 0 16 273
1928246N17287 1928 49 NA CS NOT_NAMED 1928-09-02 21:00:00 TS 17.7500 -78.3500 main 44 44 P_____________ AL031928 17.7500 -78.3500 TS 35 0 16 274
1928246N17287 1928 49 NA CS NOT_NAMED 1928-09-03 00:00:00 TS 17.8000 -79.2000 35 hurdat_atl main 95 95 O_____________ hurdat_atl AL031928 17.8000 -79.2000 TS 35 0 16 274
1928246N17287 1928 49 NA CS NOT_NAMED 1928-09-03 03:00:00 TS 17.8497 -79.9800 main 175 172 P_____________ AL031928 17.8497 -79.9800 TS 37 0 14 274
1928246N17287 1928 49 NA CS NOT_NAMED 1928-09-03 06:00:00 TS 17.9000 -80.7000 40 hurdat_atl main 245 245 O_____________ hurdat_atl AL031928 17.9000 -80.7000 TS 40 0 13 274
1928246N17287 1928 49 NA CS NOT_NAMED 1928-09-03 09:00:00 TS 17.9423 -81.3876 main 318 318 P_____________ AL031928 17.9423 -81.3876 TS 40 0 12 275
1928246N17287 1928 49 NA CS NOT_NAMED 1928-09-03 12:00:00 TS 18.0000 -82.0000 40 hurdat_atl main 336 320 O_____________ hurdat_atl AL031928 18.0000 -82.0000 TS 40 0 11 277
1928246N17287 1928 49 NA CS NOT_NAMED 1928-09-03 15:00:00 TS 18.0848 -82.5375 main 320 302 P_____________ AL031928 18.0848 -82.5375 TS 42 0 10 282
1928246N17287 1928 49 NA CS NOT_NAMED 1928-09-03 18:00:00 TS 18.2000 -83.0000 45 hurdat_atl main 302 295 O_____________ hurdat_atl AL031928 18.2000 -83.0000 TS 45 0 9 287
1928246N17287 1928 49 NA CS NOT_NAMED 1928-09-03 21:00:00 TS 18.3499 -83.4300 main 295 295 P_____________ AL031928 18.3499 -83.4300 TS 47 0 8 292
1928246N17287 1928 49 NA CS NOT_NAMED 1928-09-04 00:00:00 TS 18.5000 -83.8000 50 hurdat_atl main 306 303 O_____________ hurdat_atl AL031928 18.5000 -83.8000 TS 50 0 7 291
1928246N17287 1928 49 NA CS NOT_NAMED 1928-09-04 03:00:00 TS 18.5999 -84.1152 main 308 305 P_____________ AL031928 18.5999 -84.1152 TS 50 0 6 289
1928246N17287 1928 49 NA CS NOT_NAMED 1928-09-04 06:00:00 TS 18.7000 -84.4000 50 hurdat_atl main 314 294 O_____________ hurdat_atl AL031928 18.7000 -84.4000 TS 50 0 6 295
1928246N17287 1928 49 NA CS NOT_NAMED 1928-09-04 09:00:00 TS 18.8499 -84.6850 main 294 258 P_____________ AL031928 18.8499 -84.6850 TS 50 0 6 298
1928246N17287 1928 49 NA CS NOT_NAMED 1928-09-04 12:00:00 TS 19.0000 -85.0000 50 hurdat_atl main 258 214 O_____________ hurdat_atl AL031928 19.0000 -85.0000 TS 50 0 7 291
1928246N17287 1928 49 NA CS NOT_NAMED 1928-09-04 15:00:00 TS 19.1075 -85.3776 main 214 171 P_____________ AL031928 19.1075 -85.3776 TS 50 0 8 285
1928246N17287 1928 49 NA CS NOT_NAMED 1928-09-04 18:00:00 TS 19.2000 -85.8000 50 hurdat_atl main 171 127 O_____________ hurdat_atl AL031928 19.2000 -85.8000 TS 50 0 8 283
1928246N17287 1928 49 NA CS NOT_NAMED 1928-09-04 21:00:00 TS 19.3000 -86.2500 main 117 74 P_____________ AL031928 19.3000 -86.2500 TS 50 0 9 283
1928246N17287 1928 49 NA CS NOT_NAMED 1928-09-05 00:00:00 TS 19.4000 -86.7000 50 hurdat_atl main 74 31 O_____________ hurdat_atl AL031928 19.4000 -86.7000 TS 50 0 8 284
1928246N17287 1928 49 NA CS NOT_NAMED 1928-09-05 03:00:00 TS 19.4998 -87.1001 main 31 10 P_____________ AL031928 19.4998 -87.1001 TS 50 0 8 285
1928246N17287 1928 49 NA CS NOT_NAMED 1928-09-05 06:00:00 TS 19.6000 -87.5000 50 hurdat_atl main 11 0 O_____________ hurdat_atl AL031928 19.6000 -87.5000 TS 50 0 8 284
1928246N17287 1928 49 NA NA NOT_NAMED 1928-09-05 09:00:00 TS 19.6999 -87.9425 main 0 0 P_____________ AL031928 19.6999 -87.9425 TS 45 0 9 283
1928246N17287 1928 49 NA NA NOT_NAMED 1928-09-05 12:00:00 TS 19.8000 -88.4000 40 hurdat_atl main 0 0 O_____________ hurdat_atl AL031928 19.8000 -88.4000 TS 40 0 9 283
1928246N17287 1928 49 NA NA NOT_NAMED 1928-09-05 15:00:00 TS 19.8923 -88.8426 main 0 0 P_____________ AL031928 19.8923 -88.8426 TS 37 0 9 283
1928246N17287 1928 49 NA NA NOT_NAMED 1928-09-05 18:00:00 TS 20.0000 -89.3000 35 hurdat_atl main 0 0 O_____________ hurdat_atl AL031928 20.0000 -89.3000 TS 35 0 9 286
1928246N17287 1928 49 NA NA NOT_NAMED 1928-09-05 21:00:00 TS 20.1499 -89.7924 main 0 0 P_____________ AL031928 20.1499 -89.7924 TS 35 0 10 288
1928246N17287 1928 49 NA NA NOT_NAMED 1928-09-06 00:00:00 TS 20.3000 -90.3000 35 hurdat_atl main 0 0 O_____________ hurdat_atl AL031928 20.3000 -90.3000 TS 35 0 10 285
1928246N17287 1928 49 NA GM NOT_NAMED 1928-09-06 03:00:00 TS 20.3999 -90.8077 main 31 31 P_____________ AL031928 20.3999 -90.8077 TS 37 0 10 282
1928246N17287 1928 49 NA GM NOT_NAMED 1928-09-06 06:00:00 TS 20.5000 -91.3000 40 hurdat_atl main 83 83 O_____________ hurdat_atl AL031928 20.5000 -91.3000 TS 40 0 9 285
1928246N17287 1928 49 NA GM NOT_NAMED 1928-09-06 09:00:00 TS 20.6424 -91.7650 main 135 135 P_____________ AL031928 20.6424 -91.7650 TS 40 0 9 290
1928246N17287 1928 49 NA GM NOT_NAMED 1928-09-06 12:00:00 TS 20.8000 -92.2000 40 hurdat_atl main 180 180 O_____________ hurdat_atl AL031928 20.8000 -92.2000 TS 40 0 8 291
1928246N17287 1928 49 NA GM NOT_NAMED 1928-09-06 15:00:00 TS 20.9499 -92.6076 main 222 222 P_____________ AL031928 20.9499 -92.6076 TS 42 0 8 292
1928246N17287 1928 49 NA GM NOT_NAMED 1928-09-06 18:00:00 TS 21.1000 -93.0000 45 hurdat_atl main 268 268 O_____________ hurdat_atl AL031928 21.1000 -93.0000 TS 45 0 8 292
1928246N17287 1928 49 NA GM NOT_NAMED 1928-09-06 21:00:00 TS 21.2500 -93.4076 main 299 299 P_____________ AL031928 21.2500 -93.4076 TS 45 0 8 292
1928246N17287 1928 49 NA GM NOT_NAMED 1928-09-07 00:00:00 TS 21.4000 -93.8000 45 hurdat_atl main 318 298 O_____________ hurdat_atl AL031928 21.4000 -93.8000 TS 45 0 8 293
1928246N17287 1928 49 NA GM NOT_NAMED 1928-09-07 03:00:00 TS 21.5499 -94.1651 main 290 281 P_____________ AL031928 21.5499 -94.1651 TS 45 0 7 295
1928246N17287 1928 49 NA GM NOT_NAMED 1928-09-07 06:00:00 TS 21.7000 -94.5000 45 hurdat_atl main 281 259 O_____________ hurdat_atl AL031928 21.7000 -94.5000 TS 45 0 7 297
1928246N17287 1928 49 NA GM NOT_NAMED 1928-09-07 09:00:00 TS 21.8499 -94.8076 main 259 231 P_____________ AL031928 21.8499 -94.8076 TS 45 0 6 298
1928246N17287 1928 49 NA GM NOT_NAMED 1928-09-07 12:00:00 TS 22.0000 -95.1000 45 hurdat_atl main 231 203 O_____________ hurdat_atl AL031928 22.0000 -95.1000 TS 45 0 6 298
1928246N17287 1928 49 NA GM NOT_NAMED 1928-09-07 15:00:00 TS 22.1424 -95.3926 main 203 182 P_____________ AL031928 22.1424 -95.3926 TS 45 0 6 298
1928246N17287 1928 49 NA GM NOT_NAMED 1928-09-07 18:00:00 TS 22.3000 -95.7000 45 hurdat_atl main 182 161 O_____________ hurdat_atl AL031928 22.3000 -95.7000 TS 45 0 7 301
1928246N17287 1928 49 NA GM NOT_NAMED 1928-09-07 21:00:00 TS 22.4924 -96.0276 main 167 143 P_____________ AL031928 22.4924 -96.0276 TS 45 0 8 302
1928246N17287 1928 49 NA GM NOT_NAMED 1928-09-08 00:00:00 TS 22.7000 -96.4000 45 hurdat_atl main 143 102 O_____________ hurdat_atl AL031928 22.7000 -96.4000 TS 45 0 8 297
1928246N17287 1928 49 NA GM NOT_NAMED 1928-09-08 03:00:00 TS 22.8623 -96.8132 main 102 51 P_____________ AL031928 22.8623 -96.8132 TS 42 0 9 296
1928246N17287 1928 49 NA GM NOT_NAMED 1928-09-08 06:00:00 TS 23.1000 -97.3000 40 hurdat_atl main 51 0 O_____________ hurdat_atl AL031928 23.1000 -97.3000 TS 40 0 12 304
1928246N17287 1928 49 NA NA NOT_NAMED 1928-09-08 09:00:00 TS 23.5200 -97.8772 main 0 0 P_____________ AL031928 23.5200 -97.8772 TS 37 0 14 309
1928246N17287 1928 49 NA NA NOT_NAMED 1928-09-08 12:00:00 TS 24.0000 -98.5000 35 hurdat_atl main 0 0 O_____________ hurdat_atl AL031928 24.0000 -98.5000 TS 35 0 14 309
1928246N17287 1928 49 NA NA NOT_NAMED 1928-09-08 15:00:00 TS 24.4228 -99.1072 main 0 0 P_____________ AL031928 24.4228 -99.1072 TS 32 -1 14 306
1928246N17287 1928 49 NA NA NOT_NAMED 1928-09-08 18:00:00 TS 24.8000 -99.7000 30 hurdat_atl main 0 O_____________ hurdat_atl AL031928 24.8000 -99.7000 TD 30 -1 13 305

IBTrACS Databaseについて

本データベースは、米国NOAAが公開する1842年以降の世界の熱帯低気圧のベストトラックデータアーカイブInternational Best Track Archive for Climate Stewardship (IBTrACS)を、ウェブで閲覧しやすい形式に変換したものです。

最終更新日:2021-11-26